createdAt,value
2023-04-11T00:01:51.431Z,6.94
2023-04-11T00:04:20.931Z,6.91
2023-04-11T00:06:48.598Z,6.89
2023-04-11T00:09:16.803Z,6.82
2023-04-11T00:11:43.818Z,6.96
2023-04-11T00:14:10.947Z,6.73
2023-04-11T00:16:37.946Z,6.69
2023-04-11T00:19:04.855Z,6.86
2023-04-11T00:21:31.717Z,6.53
2023-04-11T00:23:59.688Z,6.64
2023-04-11T00:26:26.567Z,6.41
2023-04-11T00:28:54.111Z,6.58
2023-04-11T00:31:21.285Z,6.75
2023-04-11T00:33:48.384Z,6.61
2023-04-11T00:36:15.441Z,6.73
2023-04-11T00:38:42.560Z,6.62
2023-04-11T00:41:09.810Z,6.76
2023-04-11T00:43:36.861Z,6.72
2023-04-11T00:46:12.914Z,6.89
2023-04-11T00:48:41.719Z,6.66
2023-04-11T00:51:08.987Z,6.61
2023-04-11T00:53:37.457Z,6.60
2023-04-11T00:56:04.792Z,6.65
2023-04-11T00:58:33.999Z,6.46
2023-04-11T01:01:00.969Z,6.40
2023-04-11T01:03:28.432Z,6.43
2023-04-11T01:05:55.665Z,6.39
2023-04-11T01:08:22.844Z,6.25
2023-04-11T01:10:50.030Z,6.31
2023-04-11T01:13:17.359Z,6.21
2023-04-11T01:15:44.384Z,6.19
2023-04-11T01:18:11.876Z,6.35
2023-04-11T01:20:38.862Z,6.34
2023-04-11T01:23:06.567Z,6.52
2023-04-11T01:25:33.404Z,6.47
2023-04-11T01:28:00.395Z,6.43
2023-04-11T01:30:27.379Z,6.42
2023-04-11T01:32:55.149Z,6.43
2023-04-11T01:35:22.198Z,6.50
2023-04-11T01:37:49.121Z,6.47
2023-04-11T01:40:18.743Z,6.41
2023-04-11T01:42:45.907Z,6.26
2023-04-11T01:45:13.359Z,6.46
2023-04-11T01:47:40.336Z,6.40
2023-04-11T01:50:07.912Z,6.44
2023-04-11T01:52:34.855Z,6.33
2023-04-11T01:55:03.090Z,6.46
2023-04-11T01:57:29.968Z,6.46
2023-04-11T01:59:57.524Z,6.42
2023-04-11T02:02:26.214Z,6.49
2023-04-11T02:04:59.992Z,6.38
2023-04-11T02:07:27.808Z,6.35
2023-04-11T02:09:54.629Z,6.21
2023-04-11T02:12:21.501Z,6.26
2023-04-11T02:14:49.991Z,6.14
2023-04-11T02:17:18.605Z,6.10
2023-04-11T02:19:45.702Z,6.10
2023-04-11T02:22:12.964Z,6.05
2023-04-11T02:24:40.012Z,5.96
2023-04-11T02:27:07.742Z,5.88
2023-04-11T02:29:35.110Z,5.89
2023-04-11T02:32:02.158Z,5.90
2023-04-11T02:34:29.313Z,5.81
2023-04-11T02:36:56.362Z,5.83
2023-04-11T02:39:24.349Z,5.73
2023-04-11T02:41:51.468Z,5.73
2023-04-11T02:44:19.334Z,5.66
2023-04-11T02:46:47.017Z,5.52
2023-04-11T02:49:14.191Z,5.54
2023-04-11T02:51:41.401Z,5.42
2023-04-11T02:54:08.487Z,5.42
2023-04-11T02:56:39.043Z,5.31
2023-04-11T02:59:07.156Z,5.39
2023-04-11T03:01:35.007Z,5.43
2023-04-11T03:04:02.391Z,5.40
2023-04-11T03:06:43.096Z,5.32
2023-04-11T03:09:11.116Z,5.43
2023-04-11T03:11:37.946Z,5.44
2023-04-11T03:14:05.751Z,5.48
2023-04-11T03:16:33.012Z,5.37
2023-04-11T03:19:00.709Z,5.47
2023-04-11T03:21:27.666Z,5.45
2023-04-11T03:24:03.144Z,5.42
2023-04-11T03:26:32.819Z,5.33
2023-04-11T03:29:06.979Z,5.40
2023-04-11T03:31:43.236Z,5.45
2023-04-11T03:34:10.313Z,5.40
2023-04-11T03:36:39.911Z,5.50
2023-04-11T03:39:07.141Z,5.48
2023-04-11T03:41:34.057Z,5.41
2023-04-11T03:44:01.293Z,5.45
2023-04-11T03:46:28.309Z,5.49
2023-04-11T03:48:56.336Z,5.54
2023-04-11T03:51:24.144Z,5.64
2023-04-11T03:54:00.452Z,5.60
2023-04-11T03:56:35.901Z,5.42
2023-04-11T03:59:03.254Z,5.65
2023-04-11T04:01:41.328Z,5.62
2023-04-11T04:04:09.303Z,5.58
2023-04-11T04:06:39.432Z,5.50
2023-04-11T04:09:07.475Z,5.45
2023-04-11T04:11:46.322Z,5.38
2023-04-11T04:14:14.202Z,5.28
2023-04-11T04:16:41.121Z,5.27
2023-04-11T04:19:08.259Z,5.23
2023-04-11T04:21:38.187Z,5.24
2023-04-11T04:24:06.179Z,5.20
2023-04-11T04:26:51.603Z,5.24
2023-04-11T04:29:46.170Z,5.28
2023-04-11T04:32:24.152Z,5.13
2023-04-11T04:34:58.026Z,5.23
2023-04-11T04:37:45.718Z,5.25
2023-04-11T04:40:42.383Z,5.14
2023-04-11T04:43:18.807Z,5.13
2023-04-11T04:45:55.992Z,5.04
2023-04-11T04:48:27.708Z,5.09
2023-04-11T04:50:54.572Z,4.97
2023-04-11T04:53:21.833Z,4.95
2023-04-11T04:55:54.225Z,4.95
2023-04-11T04:58:21.692Z,4.83
2023-04-11T05:00:56.186Z,4.78
2023-04-11T05:03:27.524Z,4.75
2023-04-11T05:05:54.962Z,4.74
2023-04-11T05:08:21.893Z,4.66
2023-04-11T05:10:48.841Z,4.61
2023-04-11T05:13:16.436Z,4.56
2023-04-11T05:15:49.635Z,4.58
2023-04-11T05:18:16.950Z,4.58
2023-04-11T05:20:44.729Z,4.63
2023-04-11T05:23:16.809Z,4.47
2023-04-11T05:25:43.844Z,4.61
2023-04-11T05:28:13.428Z,4.41
2023-04-11T05:30:40.480Z,4.40
2023-04-11T05:33:07.854Z,4.34
2023-04-11T05:35:35.159Z,4.43
2023-04-11T05:38:02.707Z,4.26
2023-04-11T05:40:29.542Z,4.24
2023-04-11T05:42:56.548Z,4.46
2023-04-11T05:45:26.212Z,4.30
2023-04-11T05:47:53.139Z,4.42
2023-04-11T05:50:20.699Z,4.34
2023-04-11T05:52:47.680Z,4.45
2023-04-11T05:55:14.620Z,4.52
2023-04-11T05:57:41.517Z,4.59
2023-04-11T06:00:14.386Z,4.65
2023-04-11T06:02:42.862Z,4.68
2023-04-11T06:05:13.750Z,4.59
2023-04-11T06:07:41.537Z,4.68
2023-04-11T06:10:09.590Z,4.67
2023-04-11T06:12:36.732Z,4.79
2023-04-11T06:15:04.217Z,4.76
2023-04-11T06:17:31.346Z,4.79
2023-04-11T06:19:58.662Z,5.01
2023-04-11T06:22:25.714Z,5.12
2023-04-11T06:24:52.514Z,5.11
2023-04-11T06:27:19.365Z,5.25
2023-04-11T06:29:46.434Z,5.31
2023-04-11T06:32:13.449Z,5.44
2023-04-11T06:34:40.374Z,5.31
2023-04-11T06:37:08.062Z,5.46
2023-04-11T06:39:35.672Z,5.40
2023-04-11T06:42:03.039Z,5.46
2023-04-11T06:44:32.335Z,5.35
2023-04-11T06:46:59.486Z,5.62
2023-04-11T06:49:27.400Z,5.66
2023-04-11T06:51:54.841Z,5.71
2023-04-11T06:54:22.373Z,5.67
2023-04-11T06:56:52.014Z,5.76
2023-04-11T06:59:20.561Z,5.74
2023-04-11T07:01:48.239Z,5.84
2023-04-11T07:04:15.180Z,5.87
2023-04-11T07:06:42.284Z,5.88
2023-04-11T07:09:09.908Z,5.81
2023-04-11T07:11:38.665Z,5.87
2023-04-11T07:14:05.586Z,5.87
2023-04-11T07:16:32.885Z,5.92
2023-04-11T07:19:00.162Z,5.99
2023-04-11T07:21:32.204Z,5.90
2023-04-11T07:24:00.722Z,5.93
2023-04-11T07:26:32.525Z,6.11
2023-04-11T07:29:00.016Z,6.19
2023-04-11T07:31:26.973Z,6.24
2023-04-11T07:33:54.161Z,6.26
2023-04-11T07:36:21.722Z,6.30
2023-04-11T07:38:48.654Z,6.23
2023-04-11T07:41:16.481Z,6.28
2023-04-11T07:43:43.534Z,6.55
2023-04-11T07:46:12.469Z,6.55
2023-04-11T07:48:39.414Z,6.71
2023-04-11T07:51:06.398Z,6.78
2023-04-11T07:53:33.638Z,6.79
2023-04-11T07:56:00.878Z,6.85
2023-04-11T07:58:28.637Z,6.94
2023-04-11T08:00:55.519Z,6.96
2023-04-11T08:03:23.819Z,7.01
2023-04-11T08:05:50.999Z,7.12
2023-04-11T08:08:17.883Z,7.11
2023-04-11T08:10:44.828Z,7.20
2023-04-11T08:13:11.742Z,7.23
2023-04-11T08:15:39.020Z,7.21
2023-04-11T08:18:06.072Z,7.39
2023-04-11T08:20:32.990Z,7.43
2023-04-11T08:23:00.699Z,7.49
2023-04-11T08:25:28.856Z,7.47
2023-04-11T08:27:55.907Z,7.47
2023-04-11T08:30:22.888Z,7.46
2023-04-11T08:32:50.217Z,7.41
2023-04-11T08:35:17.062Z,7.40
2023-04-11T08:37:44.635Z,7.55
2023-04-11T08:40:11.962Z,7.63
2023-04-11T08:42:38.886Z,7.55
2023-04-11T08:45:08.805Z,7.68
2023-04-11T08:47:37.127Z,7.84
2023-04-11T08:50:05.817Z,7.90
2023-04-11T08:52:33.599Z,7.95
2023-04-11T08:55:00.709Z,7.99
2023-04-11T08:57:31.617Z,7.99
2023-04-11T09:00:10.915Z,8.03
2023-04-11T09:02:56.329Z,8.04
2023-04-11T09:05:32.939Z,8.03
2023-04-11T09:08:02.054Z,8.18
2023-04-11T09:10:28.995Z,8.23
2023-04-11T09:12:56.945Z,8.20
2023-04-11T09:15:29.237Z,8.20
2023-04-11T09:17:59.689Z,8.23
2023-04-11T09:20:30.463Z,8.45
2023-04-11T09:22:59.188Z,8.50
2023-04-11T09:25:26.342Z,8.49
2023-04-11T09:28:10.143Z,8.71
2023-04-11T09:30:37.538Z,8.75
2023-04-11T09:33:20.788Z,8.84
2023-04-11T09:35:49.423Z,8.97
2023-04-11T09:38:34.322Z,9.10
2023-04-11T09:41:03.208Z,8.92
2023-04-11T09:43:53.249Z,8.97
2023-04-11T09:46:21.311Z,9.10
2023-04-11T09:48:49.816Z,9.05
2023-04-11T09:51:34.302Z,9.16
2023-04-11T09:54:03.805Z,9.11
2023-04-11T09:56:31.344Z,9.10
2023-04-11T09:59:00.264Z,9.07
2023-04-11T10:01:27.508Z,9.07
2023-04-11T10:03:56.162Z,9.37
2023-04-11T10:06:34.413Z,9.32
2023-04-11T10:09:11.248Z,9.37
2023-04-11T10:11:42.796Z,9.49
2023-04-11T10:14:09.968Z,9.48
2023-04-11T10:16:38.092Z,9.51
2023-04-11T10:19:04.941Z,9.62
2023-04-11T10:21:32.970Z,9.78
2023-04-11T10:24:17.517Z,9.80
2023-04-11T10:27:03.496Z,9.64
2023-04-11T10:29:42.633Z,9.74
2023-04-11T10:32:15.667Z,9.90
2023-04-11T10:34:54.510Z,9.95
2023-04-11T10:37:30.719Z,10.07
2023-04-11T10:40:05.896Z,10.35
2023-04-11T10:42:34.533Z,10.51
2023-04-11T10:45:18.270Z,10.75
2023-04-11T10:47:57.672Z,10.95
2023-04-11T10:50:27.453Z,10.86
2023-04-11T10:52:54.324Z,11.21
2023-04-11T10:55:21.728Z,11.00
2023-04-11T10:58:11.244Z,11.01
2023-04-11T11:00:47.013Z,10.99
2023-04-11T11:03:31.753Z,10.57
2023-04-11T11:06:03.380Z,10.45
2023-04-11T11:08:34.648Z,10.08
2023-04-11T11:11:02.874Z,9.95
2023-04-11T11:13:42.763Z,9.85
2023-04-11T11:16:12.468Z,9.86
2023-04-11T11:18:39.301Z,9.45
2023-04-11T11:21:09.301Z,9.84
2023-04-11T11:23:41.055Z,10.15
2023-04-11T11:26:08.938Z,10.61
2023-04-11T11:28:46.520Z,10.56
2023-04-11T11:31:13.420Z,11.28
2023-04-11T11:33:41.861Z,11.21
2023-04-11T11:36:09.482Z,11.49
2023-04-11T11:38:36.500Z,11.11
2023-04-11T11:41:03.703Z,10.65
2023-04-11T11:43:30.595Z,10.54
2023-04-11T11:46:14.875Z,10.88
2023-04-11T11:48:43.445Z,10.73
2023-04-11T11:51:10.376Z,10.74
2023-04-11T11:53:37.415Z,10.75
2023-04-11T11:56:14.380Z,10.98
2023-04-11T11:58:45.272Z,10.76
2023-04-11T12:01:16.380Z,11.03
2023-04-11T12:03:43.684Z,11.33
2023-04-11T12:06:11.388Z,11.23
2023-04-11T12:08:45.248Z,11.49
2023-04-11T12:11:15.351Z,11.19
2023-04-11T12:13:42.383Z,11.00
2023-04-11T12:16:09.250Z,10.87
2023-04-11T12:18:41.423Z,10.93
2023-04-11T12:21:08.368Z,10.64
2023-04-11T12:23:35.481Z,10.39
2023-04-11T12:26:02.336Z,10.40
2023-04-11T12:28:29.103Z,10.50
2023-04-11T12:30:56.382Z,10.94
2023-04-11T12:33:23.441Z,11.35
2023-04-11T12:35:50.289Z,11.83
2023-04-11T12:38:18.159Z,12.12
2023-04-11T12:40:45.721Z,12.48
2023-04-11T12:43:12.590Z,13.00
2023-04-11T12:45:39.417Z,13.44
2023-04-11T12:48:06.667Z,13.85
2023-04-11T12:50:33.525Z,14.42
2023-04-11T12:53:00.360Z,14.55
2023-04-11T12:55:28.797Z,14.80
2023-04-11T12:57:56.167Z,15.09
2023-04-11T13:00:22.987Z,15.69
2023-04-11T13:02:50.091Z,15.65
2023-04-11T13:05:17.544Z,14.73
2023-04-11T13:07:45.560Z,14.08
2023-04-11T13:10:14.100Z,13.73
2023-04-11T13:12:44.338Z,13.09
2023-04-11T13:15:12.842Z,13.08
2023-04-11T13:17:40.102Z,12.67
2023-04-11T13:20:10.293Z,13.17
2023-04-11T13:22:38.167Z,13.04
2023-04-11T13:25:05.670Z,12.82
2023-04-11T13:27:32.904Z,13.02
2023-04-11T13:29:59.736Z,13.07
2023-04-11T13:32:26.744Z,13.29
2023-04-11T13:34:53.782Z,13.28
2023-04-11T13:37:20.686Z,13.02
2023-04-11T13:39:47.577Z,13.12
2023-04-11T13:42:14.630Z,13.56
2023-04-11T13:44:41.518Z,14.20
2023-04-11T13:47:08.398Z,15.13
2023-04-11T13:49:35.486Z,16.16
2023-04-11T13:52:02.432Z,17.33
2023-04-11T13:54:30.396Z,18.04
2023-04-11T13:56:57.872Z,18.60
2023-04-11T13:59:24.714Z,18.18
2023-04-11T14:01:51.684Z,17.57
2023-04-11T14:04:18.648Z,16.68
2023-04-11T14:06:45.839Z,17.47
2023-04-11T14:09:12.692Z,18.45
2023-04-11T14:11:39.619Z,19.66
2023-04-11T14:14:06.390Z,20.42
2023-04-11T14:16:33.212Z,20.98
2023-04-11T14:19:00.044Z,19.99
2023-04-11T14:21:28.780Z,19.26
2023-04-11T14:23:56.403Z,18.48
2023-04-11T14:26:23.453Z,18.63
2023-04-11T14:28:50.391Z,19.15
2023-04-11T14:31:17.486Z,19.87
2023-04-11T14:33:44.401Z,19.74
2023-04-11T14:36:11.351Z,19.89
2023-04-11T14:38:38.221Z,18.16
2023-04-11T14:41:05.392Z,17.68
2023-04-11T14:43:32.214Z,16.99
2023-04-11T14:45:59.132Z,17.29
2023-04-11T14:48:26.505Z,18.27
2023-04-11T14:50:54.907Z,17.22
2023-04-11T14:53:22.585Z,17.72
2023-04-11T14:55:49.489Z,18.56
2023-04-11T14:58:17.054Z,19.57
2023-04-11T15:00:44.942Z,19.57
2023-04-11T15:03:12.510Z,20.31
2023-04-11T15:05:39.796Z,20.58
2023-04-11T15:08:06.678Z,19.79
2023-04-11T15:10:33.680Z,20.09
2023-04-11T15:13:00.897Z,20.13
2023-04-11T15:15:27.759Z,19.53
2023-04-11T15:18:19.050Z,19.43
2023-04-11T15:20:45.943Z,19.25
2023-04-11T15:23:12.780Z,18.85
2023-04-11T15:25:39.679Z,19.27
2023-04-11T15:28:06.775Z,19.11
2023-04-11T15:30:34.732Z,19.35
2023-04-11T15:33:01.607Z,19.45
2023-04-11T15:35:28.535Z,19.06
2023-04-11T15:37:55.321Z,18.76
2023-04-11T15:40:22.242Z,18.52
2023-04-11T15:42:49.882Z,18.14
2023-04-11T15:45:16.776Z,17.89
2023-04-11T15:47:43.681Z,17.60
2023-04-11T15:50:11.146Z,17.54
2023-04-11T15:52:38.000Z,17.04
2023-04-11T15:55:05.379Z,16.67
2023-04-11T15:57:33.108Z,17.24
2023-04-11T16:00:00.150Z,17.21
2023-04-11T16:02:28.528Z,17.04
2023-04-11T16:04:56.099Z,16.88
2023-04-11T16:07:23.394Z,16.42
2023-04-11T16:09:50.424Z,16.05
2023-04-11T16:12:18.226Z,15.80
2023-04-11T16:14:48.117Z,15.24
2023-04-11T16:17:20.457Z,14.98
2023-04-11T16:19:50.776Z,14.40
2023-04-11T16:22:17.948Z,14.14
2023-04-11T16:24:45.105Z,13.81
2023-04-11T16:27:12.070Z,13.71
2023-04-11T16:29:38.971Z,13.63
2023-04-11T16:32:06.383Z,13.47
2023-04-11T16:34:33.313Z,13.26
2023-04-11T16:37:01.300Z,13.20
2023-04-11T16:39:28.198Z,12.97
2023-04-11T16:41:56.024Z,12.92
2023-04-11T16:44:23.138Z,12.68
2023-04-11T16:46:49.982Z,12.80
2023-04-11T16:49:16.852Z,12.52
2023-04-11T16:51:43.725Z,12.66
2023-04-11T16:54:11.239Z,12.69
2023-04-11T16:56:38.097Z,12.78
2023-04-11T16:59:05.233Z,12.63
2023-04-11T17:01:32.557Z,12.35
2023-04-11T17:04:01.496Z,12.20
2023-04-11T17:06:28.946Z,12.03
2023-04-11T17:08:57.830Z,11.82
2023-04-11T17:11:25.028Z,11.94
2023-04-11T17:13:54.385Z,11.75
2023-04-11T17:16:21.915Z,11.80
2023-04-11T17:18:48.778Z,11.83
2023-04-11T17:21:16.864Z,11.62
2023-04-11T17:23:43.917Z,11.66
2023-04-11T17:26:13.585Z,11.46
2023-04-11T17:28:41.028Z,11.41
2023-04-11T17:31:15.090Z,11.34
2023-04-11T17:33:42.487Z,11.32
2023-04-11T17:36:09.974Z,11.21
2023-04-11T17:38:38.427Z,11.11
2023-04-11T17:41:14.387Z,11.01
2023-04-11T17:43:42.748Z,10.59
2023-04-11T17:46:09.862Z,10.70
2023-04-11T17:48:37.035Z,10.49
2023-04-11T17:51:05.813Z,10.44
2023-04-11T17:53:33.459Z,10.36
2023-04-11T17:56:07.359Z,10.24
2023-04-11T17:58:34.677Z,10.05
2023-04-11T18:01:03.880Z,9.92
2023-04-11T18:03:35.809Z,9.89
2023-04-11T18:06:03.276Z,9.77
2023-04-11T18:08:42.383Z,9.62
2023-04-11T18:11:14.257Z,9.46
2023-04-11T18:13:43.048Z,9.53
2023-04-11T18:16:10.383Z,9.40
2023-04-11T18:18:37.636Z,9.28
2023-04-11T18:21:06.676Z,9.21
2023-04-11T18:23:34.764Z,9.21
2023-04-11T18:26:01.721Z,9.21
2023-04-11T18:28:29.000Z,9.22
2023-04-11T18:30:56.009Z,9.25
2023-04-11T18:33:22.955Z,9.37
2023-04-11T18:35:49.788Z,9.45
2023-04-11T18:38:16.727Z,9.44
2023-04-11T18:40:43.728Z,9.45
2023-04-11T18:43:10.568Z,9.27
2023-04-11T18:45:39.074Z,9.39
2023-04-11T18:48:06.888Z,9.33
2023-04-11T18:50:38.838Z,9.25
2023-04-11T18:53:09.482Z,9.20
2023-04-11T18:55:38.301Z,9.17
2023-04-11T18:58:08.828Z,9.17
2023-04-11T19:00:36.857Z,9.15
2023-04-11T19:03:05.124Z,8.99
2023-04-11T19:05:32.378Z,8.99
2023-04-11T19:08:01.237Z,8.81
2023-04-11T19:10:29.635Z,8.75
2023-04-11T19:12:57.207Z,8.89
2023-04-11T19:15:24.127Z,9.11
2023-04-11T19:17:51.687Z,9.01
2023-04-11T19:20:19.370Z,8.91
2023-04-11T19:22:46.657Z,8.94
2023-04-11T19:25:13.590Z,8.88
2023-04-11T19:27:42.048Z,8.87
2023-04-11T19:30:11.090Z,8.99
2023-04-11T19:32:38.736Z,8.85
2023-04-11T19:35:08.686Z,8.82
2023-04-11T19:37:36.503Z,8.79
2023-04-11T19:40:07.424Z,8.77
2023-04-11T19:42:37.118Z,8.78
2023-04-11T19:45:05.118Z,8.69
2023-04-11T19:47:32.734Z,8.77
2023-04-11T19:50:01.075Z,8.75
2023-04-11T19:52:28.888Z,8.80
2023-04-11T19:54:56.584Z,8.68
2023-04-11T19:57:27.396Z,8.58
2023-04-11T19:59:54.325Z,8.61
2023-04-11T20:02:21.748Z,8.54
2023-04-11T20:04:49.633Z,8.58
2023-04-11T20:07:16.588Z,8.61
2023-04-11T20:09:43.757Z,8.62
2023-04-11T20:12:10.689Z,8.55
2023-04-11T20:14:38.349Z,8.54
2023-04-11T20:17:06.061Z,8.62
2023-04-11T20:19:33.582Z,8.51
2023-04-11T20:22:03.447Z,8.45
2023-04-11T20:24:30.418Z,8.33
2023-04-11T20:26:57.509Z,8.29
2023-04-11T20:29:24.892Z,8.31
2023-04-11T20:31:51.795Z,8.24
2023-04-11T20:34:18.923Z,8.26
2023-04-11T20:36:45.756Z,8.29
2023-04-11T20:39:12.706Z,8.26
2023-04-11T20:41:40.694Z,8.30
2023-04-11T20:44:07.698Z,8.20
2023-04-11T20:46:39.589Z,8.26
2023-04-11T20:49:07.022Z,8.10
2023-04-11T20:51:34.737Z,8.15
2023-04-11T20:54:02.113Z,8.16
2023-04-11T20:56:35.333Z,8.15
2023-04-11T20:59:02.691Z,8.02
2023-04-11T21:01:33.410Z,8.05
2023-04-11T21:04:04.359Z,7.93
2023-04-11T21:06:31.977Z,7.99
2023-04-11T21:09:00.631Z,7.94
2023-04-11T21:11:27.524Z,7.79
2023-04-11T21:13:54.914Z,7.89
2023-04-11T21:16:22.197Z,7.89
2023-04-11T21:18:49.221Z,7.86
2023-04-11T21:21:16.060Z,7.61
2023-04-11T21:23:43.612Z,7.75
2023-04-11T21:26:10.775Z,7.78
2023-04-11T21:28:37.625Z,7.83
2023-04-11T21:31:04.686Z,7.71
2023-04-11T21:33:31.627Z,7.61
2023-04-11T21:35:58.637Z,7.32
2023-04-11T21:38:25.579Z,7.19
2023-04-11T21:40:52.582Z,7.12
2023-04-11T21:43:19.419Z,6.99
2023-04-11T21:45:46.321Z,6.97
2023-04-11T21:48:13.230Z,6.93
2023-04-11T21:50:40.637Z,6.79
2023-04-11T21:53:07.573Z,6.72
2023-04-11T21:55:34.518Z,6.67
2023-04-11T21:58:01.406Z,6.56
2023-04-11T22:00:28.304Z,6.55
2023-04-11T22:02:55.396Z,6.48
2023-04-11T22:05:22.664Z,6.29
2023-04-11T22:07:50.862Z,6.30
2023-04-11T22:10:22.878Z,6.25
2023-04-11T22:12:53.980Z,6.32
2023-04-11T22:15:21.050Z,6.25
2023-04-11T22:17:54.546Z,6.22
2023-04-11T22:20:21.570Z,6.21
2023-04-11T22:22:48.321Z,6.26
2023-04-11T22:25:18.501Z,6.23
2023-04-11T22:27:45.342Z,6.24
2023-04-11T22:30:14.385Z,6.19
2023-04-11T22:32:41.355Z,6.23
2023-04-11T22:35:09.455Z,6.25
2023-04-11T22:37:36.442Z,6.25
2023-04-11T22:40:06.292Z,6.14
2023-04-11T22:42:33.219Z,6.15
2023-04-11T22:45:00.032Z,6.15
2023-04-11T22:47:28.872Z,6.13
2023-04-11T22:49:55.804Z,5.97
2023-04-11T22:52:26.336Z,5.84
2023-04-11T22:54:53.222Z,5.88
2023-04-11T22:57:20.117Z,5.77
2023-04-11T22:59:47.297Z,5.88
2023-04-11T23:02:14.172Z,5.94
2023-04-11T23:04:41.257Z,5.93
2023-04-11T23:07:08.774Z,6.01
2023-04-11T23:09:35.677Z,5.96
2023-04-11T23:12:02.702Z,5.90
2023-04-11T23:14:31.420Z,5.83
2023-04-11T23:16:58.528Z,5.82
2023-04-11T23:19:25.587Z,5.81
2023-04-11T23:21:52.434Z,5.99
2023-04-11T23:24:19.355Z,6.01
2023-04-11T23:26:46.598Z,5.88
2023-04-11T23:29:13.758Z,5.84
2023-04-11T23:31:40.661Z,5.89
2023-04-11T23:34:07.532Z,5.88
2023-04-11T23:36:34.597Z,5.92
2023-04-11T23:39:02.214Z,5.96
2023-04-11T23:41:30.396Z,5.88
2023-04-11T23:43:57.631Z,5.91
2023-04-11T23:46:24.906Z,5.88
2023-04-11T23:48:53.324Z,5.91
2023-04-11T23:51:20.150Z,5.81
2023-04-11T23:53:48.142Z,5.86
2023-04-11T23:56:15.071Z,5.81
2023-04-11T23:58:41.908Z,5.70
